Time;durP1;ratioP1;P1;durP2;ratioP2;P2;SDS_P1;SDS_P2;PMS_P1;PMS_P2;Temp;Humidity;BMP_temperature;BMP_pressure;BME280_temperature;BME280_humidity;BME280_pressure;Samples;Min_cycle;Max_cycle;Signal;HPM_P1;HPM_P2
2022/10/19 00:00:00;;;;;;;22.60;9.88;;;;;;;10.35;100.00;93926.81;2127244;27;20060;-70
2022/10/19 00:01:02;;;;;;;31.30;10.52;;;;;;;10.36;100.00;93924.91;2131668;27;20050;-70
2022/10/19 00:02:03;;;;;;;28.27;10.38;;;;;;;10.37;100.00;93927.19;2131335;27;20054;-69
2022/10/19 00:03:04;;;;;;;35.63;11.20;;;;;;;10.42;100.00;93928.69;2131356;27;20022;-70
2022/10/19 00:04:05;;;;;;;33.25;10.50;;;;;;;10.45;100.00;93931.34;2131737;27;20030;-69
2022/10/19 00:05:07;;;;;;;28.48;10.85;;;;;;;10.46;100.00;93924.06;2131175;27;20050;-70
2022/10/19 00:06:10;;;;;;;37.95;10.98;;;;;;;10.51;100.00;93924.41;2131624;27;20027;-70
2022/10/19 00:07:11;;;;;;;63.35;10.30;;;;;;;10.51;100.00;93919.06;2131571;27;20035;-69
2022/10/19 00:08:12;;;;;;;26.58;9.20;;;;;;;10.53;100.00;93922.09;2131549;27;20030;-69
2022/10/19 00:09:16;;;;;;;47.25;9.82;;;;;;;10.53;100.00;93914.06;2131414;27;20029;-70
2022/10/19 00:10:17;;;;;;;58.95;10.77;;;;;;;10.53;100.00;93919.41;2130490;27;20381;-73
2022/10/19 00:11:18;;;;;;;34.00;9.25;;;;;;;10.55;100.00;93919.78;2131428;27;20023;-70
2022/10/19 00:12:19;;;;;;;45.72;9.40;;;;;;;10.57;100.00;93916.72;2131313;27;20026;-70
2022/10/19 00:13:20;;;;;;;32.08;9.40;;;;;;;10.53;100.00;93914.06;2131194;27;20346;-71
2022/10/19 00:14:22;;;;;;;27.23;9.30;;;;;;;10.53;100.00;93911.38;2131505;27;20022;-70
2022/10/19 00:15:23;;;;;;;110.47;10.68;;;;;;;10.53;100.00;93914.06;2130420;27;20097;-70
2022/10/19 00:16:27;;;;;;;93.82;10.32;;;;;;;10.51;100.00;93915.63;2131381;27;20103;-73
2022/10/19 00:17:28;;;;;;;100.35;10.27;;;;;;;10.49;100.00;93918.72;2131484;27;20015;-70
2022/10/19 00:18:28;;;;;;;153.25;10.73;;;;;;;10.51;100.00;93912.97;2131593;27;20023;-70
2022/10/19 00:19:30;;;;;;;44.00;9.13;;;;;;;10.45;100.00;93909.19;2131041;27;20027;-71
2022/10/19 00:20:31;;;;;;;43.13;9.00;;;;;;;10.44;100.00;93913.75;2123982;27;20091;-70
2022/10/19 00:21:32;;;;;;;69.35;9.45;;;;;;;10.39;100.00;93919.53;2131236;27;20083;-73
2022/10/19 00:22:33;;;;;;;30.23;8.05;;;;;;;10.37;100.00;93915.75;2131469;27;20030;-70
2022/10/19 00:23:34;;;;;;;52.42;9.32;;;;;;;10.42;100.00;93913.41;2131038;27;20026;-72
2022/10/19 00:24:35;;;;;;;83.45;8.95;;;;;;;10.42;100.00;93912.66;2131410;27;20064;-70
2022/10/19 00:25:37;;;;;;;50.38;8.75;;;;;;;10.39;100.00;93911.53;2130572;27;20100;-72
2022/10/19 00:26:38;;;;;;;35.97;8.90;;;;;;;10.39;100.00;93908.84;2130219;27;20031;-70
2022/10/19 00:27:39;;;;;;;30.45;7.57;;;;;;;10.29;100.00;93909.69;2131182;27;20591;-69
2022/10/19 00:28:41;;;;;;;16.08;7.93;;;;;;;10.26;100.00;93905.88;2131326;27;20026;-70
2022/10/19 00:29:42;;;;;;;14.10;7.80;;;;;;;10.20;100.00;93906.69;2131061;27;20037;-71
2022/10/19 00:30:43;;;;;;;20.95;7.78;;;;;;;10.08;100.00;93902.56;2131342;27;20068;-70
2022/10/19 00:31:44;;;;;;;20.83;7.45;;;;;;;10.11;100.00;93901.03;2130484;27;20039;-69
2022/10/19 00:32:45;;;;;;;11.88;7.07;;;;;;;10.12;100.00;93897.22;2131304;27;20029;-70
2022/10/19 00:33:46;;;;;;;28.17;8.10;;;;;;;10.13;100.00;93898.72;2131013;27;20018;-70
2022/10/19 00:34:47;;;;;;;22.45;8.18;;;;;;;10.00;100.00;93901.09;2122344;27;20031;-70
2022/10/19 00:35:50;;;;;;;12.77;7.22;;;;;;;9.99;100.00;93902.25;2122049;27;20034;-69
2022/10/19 00:36:51;;;;;;;17.75;7.78;;;;;;;9.86;100.00;93906.53;2130838;27;20029;-70
2022/10/19 00:37:52;;;;;;;15.63;7.57;;;;;;;9.86;100.00;93899.28;2130527;27;20045;-73
2022/10/19 00:38:55;;;;;;;11.00;6.90;;;;;;;9.83;100.00;93897.38;2121972;27;20068;-69
2022/10/19 00:39:56;;;;;;;21.35;6.65;;;;;;;9.86;100.00;93903.88;2121961;27;20023;-70
2022/10/19 00:40:56;;;;;;;11.80;6.75;;;;;;;9.85;100.00;93897.78;2131473;27;20072;-71
2022/10/19 00:41:57;;;;;;;17.80;7.68;;;;;;;9.83;100.00;93908.84;2127968;27;20057;-71
2022/10/19 00:42:58;;;;;;;25.70;7.75;;;;;;;9.75;100.00;93901.28;2130746;27;20058;-70
2022/10/19 00:44:05;;;;;;;12.05;6.75;;;;;;;9.73;100.00;93898.22;2130982;27;20035;-72
2022/10/19 00:45:13;;;;;;;14.75;7.57;;;;;;;9.58;100.00;93900.22;2127938;27;20113;-72
2022/10/19 00:46:14;;;;;;;16.33;7.38;;;;;;;9.56;100.00;93894.50;2131056;27;20097;-71
2022/10/19 00:47:18;;;;;;;21.70;7.80;;;;;;;9.50;100.00;93904.06;2121190;27;20366;-72
2022/10/19 00:48:31;;;;;;;12.57;7.15;;;;;;;9.49;100.00;93900.63;2122475;27;20484;-70
2022/10/19 00:49:38;;;;;;;13.27;6.40;;;;;;;9.49;100.00;93903.31;2118243;27;20073;-70
2022/10/19 00:50:41;;;;;;;10.68;6.75;;;;;;;9.46;100.00;93892.66;2122920;27;20461;-69
2022/10/19 00:51:52;;;;;;;10.45;6.57;;;;;;;9.39;100.00;93890.00;2131355;27;20018;-70
2022/10/19 00:52:53;;;;;;;8.20;5.95;;;;;;;9.39;100.00;93896.09;2126978;27;20042;-71
2022/10/19 00:53:55;;;;;;;8.73;6.50;;;;;;;9.33;100.00;93900.31;2122142;27;20023;-69
2022/10/19 00:54:57;;;;;;;9.90;6.20;;;;;;;9.36;100.00;93898.81;2122368;27;20112;-69
2022/10/19 00:56:03;;;;;;;8.82;6.43;;;;;;;9.29;100.00;93896.91;2120965;27;20034;-69
2022/10/19 00:57:06;;;;;;;9.20;6.82;;;;;;;9.30;100.00;93896.50;2119223;27;20023;-69
2022/10/19 00:58:08;;;;;;;12.75;7.35;;;;;;;9.28;100.00;93898.81;2130416;27;20034;-70
2022/10/19 00:59:09;;;;;;;10.20;7.22;;;;;;;9.21;100.00;93895.41;2131175;27;20018;-69
2022/10/19 01:00:11;;;;;;;8.25;6.20;;;;;;;9.20;100.00;93893.91;2130773;27;20019;-72
2022/10/19 01:01:16;;;;;;;10.32;6.82;;;;;;;9.22;100.00;93902.25;2131123;27;20075;-71
2022/10/19 01:02:17;;;;;;;11.73;6.20;;;;;;;9.24;100.00;93894.66;2130924;27;20027;-69
2022/10/19 01:03:19;;;;;;;13.45;6.65;;;;;;;9.22;100.00;93894.25;2130309;27;20068;-72
2022/10/19 01:04:21;;;;;;;12.32;6.30;;;;;;;9.17;100.00;93894.66;2131035;27;20114;-69
2022/10/19 01:05:22;;;;;;;9.20;6.32;;;;;;;9.22;100.00;93899.59;2131009;27;20376;-69
2022/10/19 01:06:24;;;;;;;10.43;7.00;;;;;;;9.19;100.00;93893.16;2130947;27;20191;-71
2022/10/19 01:07:26;;;;;;;8.18;6.55;;;;;;;9.17;100.00;93894.66;2130990;27;20037;-69
2022/10/19 01:08:27;;;;;;;6.70;5.80;;;;;;;9.13;100.00;93894.72;2130429;27;20025;-71
2022/10/19 01:09:29;;;;;;;7.50;5.60;;;;;;;9.07;100.00;93896.22;2130887;27;20079;-69
2022/10/19 01:10:45;;;;;;;8.95;5.75;;;;;;;9.05;100.00;93887.88;2130799;27;20460;-69
2022/10/19 01:12:24;;;;;;;8.93;6.20;;;;;;;9.03;100.00;93896.25;2126860;27;20505;-70
2022/10/19 01:13:53;;;;;;;10.43;5.90;;;;;;;9.02;100.00;93894.72;2129478;27;20023;-70
2022/10/19 01:15:19;;;;;;;10.75;5.78;;;;;;;8.92;100.00;93886.78;2114914;27;20042;-70
2022/10/19 01:16:45;;;;;;;7.82;5.75;;;;;;;8.91;100.00;93886.00;2129091;27;20057;-70
2022/10/19 01:17:52;;;;;;;12.43;5.82;;;;;;;8.91;100.00;93886.00;2129050;27;20023;-72
2022/10/19 01:19:21;;;;;;;8.63;6.18;;;;;;;8.91;100.00;93883.34;2130324;27;20480;-71
2022/10/19 01:20:43;;;;;;;8.02;5.78;;;;;;;8.86;100.00;93886.38;2129649;27;20019;-71
2022/10/19 01:21:49;;;;;;;8.35;5.47;;;;;;;8.81;100.00;93884.88;2128305;27;20021;-70
2022/10/19 01:23:29;;;;;;;8.60;5.55;;;;;;;8.76;100.00;93893.28;2130814;27;20097;-70
2022/10/19 01:24:46;;;;;;;7.63;5.55;;;;;;;8.71;100.00;93883.00;2128342;27;20112;-72
2022/10/19 01:26:06;;;;;;;9.82;5.70;;;;;;;8.69;100.00;93879.97;2130950;27;20034;-70
2022/10/19 01:27:27;;;;;;;6.82;5.50;;;;;;;8.65;100.00;93881.09;2124407;27;20043;-70
2022/10/19 01:28:50;;;;;;;6.13;5.30;;;;;;;8.63;100.00;93881.50;2130909;27;20094;-70
2022/10/19 01:30:09;;;;;;;6.68;5.32;;;;;;;8.60;100.00;93878.84;2129451;27;20054;-70
2022/10/19 01:31:47;;;;;;;6.15;5.30;;;;;;;8.58;100.00;93874.66;2127930;27;20058;-69
2022/10/19 01:33:01;;;;;;;5.80;5.20;;;;;;;8.55;100.00;93880.75;2128937;27;20078;-70
2022/10/19 01:34:21;;;;;;;6.90;5.28;;;;;;;8.56;100.00;93881.53;2126899;27;20027;-69
2022/10/19 01:35:39;;;;;;;8.15;5.00;;;;;;;8.56;100.00;93878.88;2129618;27;20023;-73
2022/10/19 01:36:58;;;;;;;5.47;4.97;;;;;;;8.52;100.00;93881.53;2127942;27;20353;-70
2022/10/19 01:38:11;;;;;;;10.70;4.65;;;;;;;8.46;100.00;93888.38;2130541;27;20027;-70
2022/10/19 01:39:30;;;;;;;7.40;5.22;;;;;;;8.38;100.00;93881.53;2128255;27;20062;-71
2022/10/19 01:40:55;;;;;;;6.15;4.47;;;;;;;8.37;100.00;93882.69;2130538;27;20386;-70
2022/10/19 01:42:01;;;;;;;5.22;4.72;;;;;;;8.38;100.00;93886.09;2130192;27;20026;-70
2022/10/19 01:43:29;;;;;;;10.85;5.70;;;;;;;8.38;100.00;93876.19;2126479;27;20035;-70
2022/10/19 01:44:49;;;;;;;9.30;5.68;;;;;;;8.46;100.00;93879.63;2126520;27;20030;-70
2022/10/19 01:46:14;;;;;;;10.13;5.15;;;;;;;8.45;100.00;93878.09;2129365;27;20035;-70
2022/10/19 01:47:24;;;;;;;9.82;4.85;;;;;;;8.41;100.00;93882.69;2128926;27;20516;-72
2022/10/19 01:48:32;;;;;;;;;;;;;;;8.38;100.00;93881.53;2131348;27;20082;-70
2022/10/19 01:49:49;;;;;;;8.55;4.68;;;;;;;8.30;100.00;93877.34;2126954;27;20348;-70
2022/10/19 01:50:59;;;;;;;5.93;4.53;;;;;;;8.22;100.00;93875.81;2129139;27;20031;-70
2022/10/19 01:52:04;;;;;;;5.32;4.63;;;;;;;8.18;100.00;93873.16;2126293;27;20524;-70
2022/10/19 01:53:08;;;;;;;5.22;4.72;;;;;;;8.18;100.00;93875.06;2130484;27;20022;-71
2022/10/19 01:54:13;;;;;;;6.32;4.47;;;;;;;8.20;100.00;93876.19;2130481;27;20022;-72
2022/10/19 01:55:16;;;;;;;9.27;4.88;;;;;;;8.21;100.00;93875.06;2130067;27;20031;-70
2022/10/19 01:56:20;;;;;;;4.75;4.35;;;;;;;8.16;100.00;93874.66;2121250;27;20456;-71
2022/10/19 01:57:29;;;;;;;7.07;4.38;;;;;;;8.10;100.00;93865.56;2122003;27;20374;-70
2022/10/19 01:58:34;;;;;;;8.55;4.43;;;;;;;8.08;100.00;93871.25;2126596;27;20026;-70
2022/10/19 01:59:36;;;;;;;6.95;4.63;;;;;;;8.11;100.00;93873.16;2130332;27;20054;-72
2022/10/19 02:00:41;;;;;;;5.20;4.70;;;;;;;8.12;100.00;93876.56;2129957;27;20038;-70
2022/10/19 02:01:45;;;;;;;5.78;4.18;;;;;;;8.10;100.00;93863.66;2130351;27;20023;-72
2022/10/19 02:02:49;;;;;;;5.90;4.45;;;;;;;8.03;100.00;93875.06;2130718;27;20025;-70
2022/10/19 02:03:52;;;;;;;6.97;4.60;;;;;;;8.05;100.00;93872.03;2130609;27;20041;-70
2022/10/19 02:04:56;;;;;;;4.85;4.35;;;;;;;8.00;100.00;93867.84;2130496;27;20104;-70
2022/10/19 02:05:58;;;;;;;4.68;4.28;;;;;;;7.98;100.00;93872.00;2129807;27;20050;-72
2022/10/19 02:07:01;;;;;;;7.10;4.35;;;;;;;8.01;100.00;93872.00;2130219;27;20027;-71
2022/10/19 02:08:09;;;;;;;4.53;4.10;;;;;;;7.99;100.00;93871.66;2126622;27;20505;-70
2022/10/19 02:09:16;;;;;;;6.75;4.45;;;;;;;7.93;100.00;93867.06;2130692;27;20027;-72
2022/10/19 02:10:19;;;;;;;6.20;4.50;;;;;;;7.91;100.00;93867.47;2130389;27;20061;-70
2022/10/19 02:11:21;;;;;;;5.72;4.20;;;;;;;7.92;100.00;93866.31;2120674;27;20453;-73
2022/10/19 02:12:24;;;;;;;7.35;4.50;;;;;;;7.91;100.00;93867.47;2121716;27;20046;-71
2022/10/19 02:13:28;;;;;;;9.93;4.78;;;;;;;7.91;100.00;93874.69;2130267;27;20398;-70
2022/10/19 02:14:33;;;;;;;4.65;4.25;;;;;;;7.90;100.00;93867.81;2130550;27;20078;-71
2022/10/19 02:15:38;;;;;;;5.53;3.88;;;;;;;7.82;100.00;93873.16;2126726;27;20525;-69
2022/10/19 02:16:48;;;;;;;5.80;4.30;;;;;;;7.77;100.00;93870.09;2129824;27;20030;-71
2022/10/19 02:17:55;;;;;;;4.50;4.10;;;;;;;7.79;100.00;93870.47;2130537;27;20468;-70
2022/10/19 02:18:59;;;;;;;5.13;4.10;;;;;;;7.85;100.00;93868.19;2130644;27;20026;-70
2022/10/19 02:20:00;;;;;;;4.68;4.20;;;;;;;7.86;100.00;93870.50;2126050;27;20075;-70
2022/10/19 02:21:03;;;;;;;4.63;4.00;;;;;;;7.81;100.00;93865.53;2130569;27;20082;-70
2022/10/19 02:22:05;;;;;;;6.45;4.95;;;;;;;7.75;100.00;93864.38;2125285;27;20107;-71
2022/10/19 02:23:06;;;;;;;4.20;3.80;;;;;;;7.75;100.00;93862.50;2130317;27;20029;-73
2022/10/19 02:24:07;;;;;;;5.88;4.32;;;;;;;7.77;100.00;93867.41;2130486;27;20031;-70
2022/10/19 02:25:09;;;;;;;8.07;4.22;;;;;;;7.75;100.00;93861.72;2130525;27;20038;-71
2022/10/19 02:26:11;;;;;;;5.05;4.20;;;;;;;7.74;100.00;93873.53;2130529;27;20460;-70
2022/10/19 02:27:12;;;;;;;7.10;4.30;;;;;;;7.70;100.00;93862.88;2128561;27;20050;-70
2022/10/19 02:28:13;;;;;;;5.85;4.22;;;;;;;7.67;100.00;93862.84;2121397;28;20087;-72
2022/10/19 02:29:15;;;;;;;6.20;4.40;;;;;;;7.70;100.00;93864.78;2121472;28;20019;-68
2022/10/19 02:30:19;;;;;;;4.13;3.72;;;;;;;7.67;100.00;93862.84;2130593;27;20102;-70
2022/10/19 02:31:20;;;;;;;3.95;3.55;;;;;;;7.63;100.00;93862.09;2130565;27;20026;-71
2022/10/19 02:32:21;;;;;;;5.80;3.80;;;;;;;7.65;100.00;93862.50;2129047;27;20038;-70
2022/10/19 02:33:22;;;;;;;4.38;3.90;;;;;;;7.68;100.00;93867.03;2130143;27;20114;-70
2022/10/19 02:34:24;;;;;;;4.75;4.03;;;;;;;7.74;100.00;93860.97;2130518;27;20042;-69
2022/10/19 02:35:25;;;;;;;6.50;4.30;;;;;;;7.73;100.00;93858.69;2130314;27;20025;-70
2022/10/19 02:36:26;;;;;;;4.65;4.15;;;;;;;7.74;100.00;93860.97;2130422;27;20053;-70
2022/10/19 02:37:27;;;;;;;4.90;3.67;;;;;;;7.76;100.00;93858.69;2129605;27;20024;-70
2022/10/19 02:38:28;;;;;;;6.60;3.80;;;;;;;7.79;100.00;93859.84;2130413;27;20138;-69
2022/10/19 02:39:29;;;;;;;4.93;3.85;;;;;;;7.81;100.00;93862.88;2121061;28;20035;-72
2022/10/19 02:40:35;;;;;;;5.38;3.92;;;;;;;7.83;100.00;93855.28;2117180;28;20023;-70
2022/10/19 02:41:52;;;;;;;4.95;3.75;;;;;;;7.90;100.00;93860.63;2130282;27;20023;-70
2022/10/19 02:43:02;;;;;;;4.05;3.65;;;;;;;7.98;100.00;93861.34;2129134;27;20038;-71
2022/10/19 02:44:06;;;;;;;;;;;;;;;8.04;100.00;93855.28;2127262;27;20056;-70
2022/10/19 02:45:24;;;;;;;5.38;4.20;;;;;;;8.02;100.00;93857.56;2130415;27;20346;-70
2022/10/19 02:46:37;;;;;;;9.75;3.60;;;;;;;8.05;100.00;93854.13;2130585;27;20464;-70
2022/10/19 02:47:50;;;;;;;3.60;3.30;;;;;;;8.04;100.00;93852.63;2126043;27;20018;-69
2022/10/19 02:48:53;;;;;;;9.07;4.88;;;;;;;8.08;100.00;93853.38;2129218;27;20027;-72
2022/10/19 02:49:54;;;;;;;4.60;3.40;;;;;;;8.04;100.00;93851.88;2130144;27;20109;-70
2022/10/19 02:50:55;;;;;;;7.53;3.40;;;;;;;8.02;100.00;93848.81;2130600;27;20023;-70
2022/10/19 02:52:01;;;;;;;4.45;4.03;;;;;;;7.97;100.00;93852.63;2129950;27;20042;-72
2022/10/19 02:53:02;;;;;;;5.60;4.13;;;;;;;8.06;100.00;93849.56;2125755;27;20027;-69
2022/10/19 02:54:05;;;;;;;6.90;3.63;;;;;;;8.12;100.00;93847.28;2121024;28;20031;-70
2022/10/19 02:55:07;;;;;;;5.45;3.58;;;;;;;8.18;100.00;93853.75;2121584;27;20024;-70
2022/10/19 02:56:08;;;;;;;4.35;3.78;;;;;;;8.20;100.00;93854.13;2130438;27;20058;-70
2022/10/19 02:57:22;;;;;;;4.22;3.50;;;;;;;8.26;100.00;93853.38;2130384;27;20372;-69
2022/10/19 02:58:23;;;;;;;3.97;3.58;;;;;;;8.32;100.00;93854.50;2129995;27;20437;-69
2022/10/19 02:59:24;;;;;;;13.15;4.60;;;;;;;8.29;100.00;93857.16;2130135;27;20030;-69
2022/10/19 03:00:25;;;;;;;3.92;3.58;;;;;;;8.34;100.00;93848.81;2121229;28;20047;-69
2022/10/19 03:01:26;;;;;;;19.17;5.15;;;;;;;8.41;100.00;93846.13;2121469;27;20469;-72
2022/10/19 03:02:27;;;;;;;12.07;4.78;;;;;;;8.49;100.00;93849.56;2130081;27;20054;-70
2022/10/19 03:03:28;;;;;;;7.05;4.70;;;;;;;8.57;100.00;93845.75;2120174;28;20034;-72
2022/10/19 03:04:29;;;;;;;15.00;5.05;;;;;;;8.56;100.00;93847.66;2112764;28;20028;-70
2022/10/19 03:05:30;;;;;;;14.05;5.32;;;;;;;8.54;100.00;93849.91;2112782;27;20027;-71
2022/10/19 03:06:31;;;;;;;40.55;6.68;;;;;;;8.57;100.00;93846.50;2130422;27;20091;-69
2022/10/19 03:07:32;;;;;;;45.50;6.97;;;;;;;8.58;100.00;93841.91;2130445;27;20051;-70
2022/10/19 03:08:33;;;;;;;61.40;7.57;;;;;;;8.59;100.00;93843.44;2129812;27;20268;-70
2022/10/19 03:09:34;;;;;;;44.15;7.90;;;;;;;8.60;100.00;93844.19;2130400;27;20364;-72
2022/10/19 03:10:35;;;;;;;67.30;7.30;;;;;;;8.60;100.00;93850.28;2130138;27;20464;-70
2022/10/19 03:11:38;;;;;;;60.65;6.78;;;;;;;8.62;100.00;93845.34;2130179;27;20023;-70
2022/10/19 03:12:39;;;;;;;43.63;7.30;;;;;;;8.63;100.00;93844.19;2130123;27;20326;-71
2022/10/19 03:13:41;;;;;;;64.50;7.90;;;;;;;8.60;100.00;93842.28;2128086;27;20055;-71
2022/10/19 03:14:42;;;;;;;62.55;7.45;;;;;;;8.62;100.00;93845.34;2127795;27;20019;-70
2022/10/19 03:15:43;;;;;;;65.63;8.05;;;;;;;8.63;100.00;93844.19;2120965;28;20038;-70
2022/10/19 03:16:44;;;;;;;88.72;7.75;;;;;;;8.66;100.00;93842.66;2121285;28;20024;-72
2022/10/19 03:17:45;;;;;;;60.75;7.85;;;;;;;8.69;100.00;93844.53;2121757;27;20020;-70
2022/10/19 03:18:48;;;;;;;78.18;7.53;;;;;;;8.61;100.00;93835.84;2120975;27;20055;-70
2022/10/19 03:19:49;;;;;;;61.33;7.53;;;;;;;8.62;100.00;93841.91;2122169;27;20027;-70
2022/10/19 03:20:50;;;;;;;48.30;7.20;;;;;;;8.69;100.00;93836.56;2122829;27;20038;-70
2022/10/19 03:21:51;;;;;;;75.13;8.20;;;;;;;8.70;100.00;93833.53;2123119;27;20015;-71
2022/10/19 03:22:52;;;;;;;76.30;8.10;;;;;;;8.68;100.00;93833.13;2123050;27;20019;-71
2022/10/19 03:23:53;;;;;;;38.63;7.65;;;;;;;8.70;100.00;93833.53;2123286;27;20060;-71
2022/10/19 03:24:54;;;;;;;64.18;8.13;;;;;;;8.75;100.00;93825.13;2122628;27;20414;-70
2022/10/19 03:25:55;;;;;;;117.30;9.52;;;;;;;8.75;100.00;93827.03;2123309;27;20023;-69
2022/10/19 03:26:56;;;;;;;71.18;7.45;;;;;;;8.75;100.00;93822.47;2119474;27;20027;-68
2022/10/19 03:27:57;;;;;;;29.83;7.20;;;;;;;8.80;100.00;93819.38;2123065;27;20066;-70
2022/10/19 03:28:58;;;;;;;29.70;7.32;;;;;;;8.82;100.00;93822.44;2123362;27;20015;-69
2022/10/19 03:29:59;;;;;;;72.75;8.48;;;;;;;8.97;100.00;93814.38;2122428;27;20023;-69
2022/10/19 03:31:00;;;;;;;53.78;8.07;;;;;;;8.97;100.00;93814.38;2118949;27;20019;-73
2022/10/19 03:32:01;;;;;;;70.72;7.72;;;;;;;9.00;100.00;93825.03;2122830;27;20110;-69
2022/10/19 03:33:02;;;;;;;45.78;7.28;;;;;;;8.98;100.00;93819.31;2122696;27;20050;-70
2022/10/19 03:34:03;;;;;;;33.35;6.30;;;;;;;9.01;100.00;93818.56;2123514;27;20023;-71
2022/10/19 03:35:04;;;;;;;38.83;7.47;;;;;;;9.01;100.00;93825.78;2123140;27;20106;-69
2022/10/19 03:36:35;;;;;;;32.72;6.55;;;;;;;9.01;100.00;93821.22;2122655;27;20015;-70
2022/10/19 03:37:36;;;;;;;25.17;5.72;;;;;;;9.04;100.00;93820.44;2119011;27;20597;-70
2022/10/19 03:38:36;;;;;;;13.15;5.60;;;;;;;9.02;100.00;93828.06;2122642;27;20018;-70
2022/10/19 03:39:37;;;;;;;72.55;7.68;;;;;;;8.98;100.00;93829.97;2123020;27;20133;-72
2022/10/19 03:40:39;;;;;;;59.65;7.05;;;;;;;8.98;100.00;93821.97;2122419;27;20038;-70
2022/10/19 03:41:40;;;;;;;64.20;7.75;;;;;;;8.96;100.00;93820.88;2122138;27;20103;-70
2022/10/19 03:42:41;;;;;;;54.97;7.03;;;;;;;8.97;100.00;93831.13;2123080;27;20423;-71
2022/10/19 03:43:42;;;;;;;76.90;8.23;;;;;;;8.98;100.00;93823.88;2119543;27;20031;-73
2022/10/19 03:44:43;;;;;;;69.38;7.50;;;;;;;8.98;100.00;93821.97;2122507;27;20031;-70
2022/10/19 03:45:47;;;;;;;13.00;6.50;;;;;;;9.02;100.00;93830.72;2123193;27;20035;-72
2022/10/19 03:46:48;;;;;;;67.20;7.40;;;;;;;9.03;100.00;93829.56;2122490;27;20057;-72
2022/10/19 03:47:50;;;;;;;33.28;7.00;;;;;;;9.02;100.00;93820.06;2123280;27;20022;-70
2022/10/19 03:48:51;;;;;;;27.42;6.55;;;;;;;9.04;100.00;93828.44;2123150;27;20547;-70
2022/10/19 03:49:52;;;;;;;66.28;8.23;;;;;;;9.05;100.00;93824.63;2123055;27;20023;-70
2022/10/19 03:51:08;;;;;;;68.05;8.00;;;;;;;9.00;100.00;93832.25;2120130;27;20411;-70
2022/10/19 03:52:09;;;;;;;108.90;8.88;;;;;;;9.00;100.00;93834.91;2120033;27;20027;-69
2022/10/19 03:53:10;;;;;;;101.65;8.07;;;;;;;8.98;100.00;93834.56;2122559;27;20031;-69
2022/10/19 03:54:13;;;;;;;87.65;7.65;;;;;;;8.98;100.00;93826.56;2122175;27;20479;-70
2022/10/19 03:55:15;;;;;;;48.33;6.88;;;;;;;9.02;100.00;93830.72;2122520;27;20020;-69
2022/10/19 03:56:19;;;;;;;50.05;7.20;;;;;;;9.05;100.00;93827.28;2122987;27;20027;-71
2022/10/19 03:57:20;;;;;;;83.78;7.72;;;;;;;9.09;100.00;93824.63;2122399;27;20039;-71
2022/10/19 03:58:21;;;;;;;33.70;6.07;;;;;;;9.17;100.00;93828.00;2123196;27;20116;-71
2022/10/19 03:59:23;;;;;;;57.13;6.90;;;;;;;9.21;100.00;93828.72;2122828;27;20019;-71
2022/10/19 04:00:24;;;;;;;53.05;6.53;;;;;;;9.26;100.00;93820.31;2122978;27;20034;-69
2022/10/19 04:01:31;;;;;;;69.82;6.63;;;;;;;9.28;100.00;93824.13;2123143;27;20759;-71
2022/10/19 04:02:32;;;;;;;112.93;8.15;;;;;;;9.25;100.00;93824.13;2118991;27;20035;-70
2022/10/19 04:03:33;;;;;;;45.67;5.93;;;;;;;9.29;100.00;93824.88;2122457;27;20038;-70
2022/10/19 04:04:34;;;;;;;131.40;8.10;;;;;;;9.28;100.00;93831.38;2122649;27;20445;-72
2022/10/19 04:05:34;;;;;;;135.57;9.27;;;;;;;9.22;100.00;93828.38;2122978;27;20047;-72
2022/10/19 04:06:39;;;;;;;123.53;7.43;;;;;;;9.24;100.00;93830.63;2123114;27;20510;-69
2022/10/19 04:07:40;;;;;;;68.60;6.63;;;;;;;9.25;100.00;93832.91;2118361;27;20024;-70
2022/10/19 04:08:41;;;;;;;110.57;7.80;;;;;;;9.20;100.00;93832.56;2123159;27;20065;-70
2022/10/19 04:09:42;;;;;;;74.82;6.93;;;;;;;9.24;100.00;93830.63;2122933;27;20023;-71
2022/10/19 04:10:43;;;;;;;70.53;6.88;;;;;;;9.27;100.00;93835.19;2122950;27;20037;-71
2022/10/19 04:11:45;;;;;;;105.72;7.55;;;;;;;9.29;100.00;93827.56;2122333;27;20080;-70
2022/10/19 04:12:46;;;;;;;36.47;6.30;;;;;;;9.37;100.00;93826.38;2122350;27;20027;-70
2022/10/19 04:13:53;;;;;;;101.57;7.15;;;;;;;9.34;100.00;93827.13;2122277;27;20023;-70
2022/10/19 04:14:54;;;;;;;70.10;7.85;;;;;;;9.33;100.00;93823.72;2122943;27;20049;-72
2022/10/19 04:15:55;;;;;;;102.30;7.85;;;;;;;9.32;100.00;93824.13;2127007;27;20047;-69
2022/10/19 04:16:56;;;;;;;137.00;7.95;;;;;;;9.33;100.00;93825.63;2131437;27;20166;-72
2022/10/19 04:17:56;;;;;;;99.80;6.93;;;;;;;9.33;100.00;93818.38;2130194;27;20035;-70
2022/10/19 04:18:59;;;;;;;136.07;8.45;;;;;;;9.31;100.00;93822.59;2131381;27;20039;-70
2022/10/19 04:20:00;;;;;;;83.57;6.65;;;;;;;9.31;100.00;93820.69;2131539;27;20034;-71
2022/10/19 04:21:04;;;;;;;55.05;5.80;;;;;;;9.30;100.00;93813.81;2131277;27;20030;-69
2022/10/19 04:22:05;;;;;;;70.32;5.47;;;;;;;9.32;100.00;93814.19;2131188;27;20033;-69
2022/10/19 04:23:06;;;;;;;39.72;6.35;;;;;;;9.36;100.00;93816.84;2127041;27;20027;-69
2022/10/19 04:24:13;;;;;;;66.13;6.43;;;;;;;9.38;100.00;93809.19;2131124;27;20083;-71
2022/10/19 04:25:14;;;;;;;66.85;5.78;;;;;;;9.40;100.00;93806.91;2126956;27;20076;-70
2022/10/19 04:26:16;;;;;;;94.10;5.95;;;;;;;9.40;100.00;93816.84;2131156;27;20027;-69
2022/10/19 04:27:16;;;;;;;146.98;7.78;;;;;;;9.37;100.00;93807.69;2127235;27;20449;-69
2022/10/19 04:28:17;;;;;;;139.23;7.72;;;;;;;9.38;100.00;93811.88;2130798;27;20019;-70
2022/10/19 04:29:20;;;;;;;55.00;5.97;;;;;;;9.42;100.00;93807.28;2131423;27;20471;-70
2022/10/19 04:30:22;;;;;;;46.17;6.43;;;;;;;9.42;100.00;93806.53;2131254;27;20057;-69
2022/10/19 04:31:23;;;;;;;35.42;6.20;;;;;;;9.45;100.00;93801.16;2131214;27;20078;-69
2022/10/19 04:32:24;;;;;;;50.03;6.35;;;;;;;9.42;100.00;93806.53;2131235;27;20026;-70
2022/10/19 04:33:27;;;;;;;91.53;7.10;;;;;;;9.37;100.00;93805.03;2121198;27;20109;-70
2022/10/19 04:34:28;;;;;;;72.90;6.63;;;;;;;9.31;100.00;93804.69;2122133;27;20034;-71
2022/10/19 04:35:29;;;;;;;44.72;5.88;;;;;;;9.35;100.00;93804.66;2131327;27;20057;-70
2022/10/19 04:36:30;;;;;;;72.68;6.47;;;;;;;9.34;100.00;93816.47;2131297;27;20023;-70
2022/10/19 04:37:31;;;;;;;41.63;6.53;;;;;;;9.35;100.00;93812.66;2127082;27;20917;-70
2022/10/19 04:38:33;;;;;;;52.58;6.72;;;;;;;9.33;100.00;93809.63;2130657;27;20034;-72
2022/10/19 04:39:38;;;;;;;49.83;6.13;;;;;;;9.33;100.00;93815.72;2131174;27;20027;-72
2022/10/19 04:40:39;;;;;;;34.50;6.38;;;;;;;9.32;100.00;93808.09;2131171;27;20030;-72
2022/10/19 04:41:40;;;;;;;32.75;6.15;;;;;;;9.32;100.00;93811.53;2131154;27;20117;-70
2022/10/19 04:42:41;;;;;;;21.75;9.90;;;;;;;9.36;100.00;93808.84;2131256;27;20441;-73
2022/10/19 04:43:45;;;;;;;22.80;14.75;;;;;;;9.39;100.00;93808.03;2129964;27;20034;-70
2022/10/19 04:44:46;;;;;;;30.95;17.08;;;;;;;9.40;100.00;93806.91;2130939;27;20026;-73
2022/10/19 04:45:47;;;;;;;28.65;11.98;;;;;;;9.39;100.00;93804.63;2130892;27;20030;-71
2022/10/19 04:46:49;;;;;;;110.15;15.48;;;;;;;9.41;100.00;93802.34;2131292;27;20506;-69
2022/10/19 04:47:53;;;;;;;97.53;16.13;;;;;;;9.40;100.00;93804.25;2131214;27;20058;-70
2022/10/19 04:48:56;;;;;;;180.80;18.50;;;;;;;9.34;100.00;93798.53;2131073;27;20027;-71
2022/10/19 04:49:57;;;;;;;110.10;14.60;;;;;;;9.43;100.00;93800.03;2131044;27;20031;-69
2022/10/19 04:50:58;;;;;;;127.43;14.38;;;;;;;9.54;100.00;93792.72;2131232;27;20038;-69
2022/10/19 04:51:59;;;;;;;185.82;13.15;;;;;;;9.41;100.00;93799.66;2130894;27;20085;-69
2022/10/19 04:53:00;;;;;;;18.15;10.10;;;;;;;9.45;100.00;93792.41;2119244;27;20424;-70
2022/10/19 04:54:02;;;;;;;70.57;9.98;;;;;;;9.43;100.00;93795.44;2108375;28;20114;-69
2022/10/19 04:55:03;;;;;;;36.05;10.30;;;;;;;9.45;100.00;93797.75;2126479;27;20022;-73
2022/10/19 04:56:21;;;;;;;147.43;11.07;;;;;;;9.45;100.00;93792.41;2128169;27;20030;-69
2022/10/19 04:57:22;;;;;;;29.88;7.95;;;;;;;9.43;100.00;93792.03;2128109;27;20026;-69
2022/10/19 04:58:23;;;;;;;31.77;8.90;;;;;;;9.46;100.00;93794.66;2126673;27;20827;-69
2022/10/19 04:59:24;;;;;;;21.65;8.63;;;;;;;9.45;100.00;93803.06;2126448;27;20055;-69
2022/10/19 05:00:25;;;;;;;96.70;8.95;;;;;;;9.46;100.00;93802.69;2128263;27;20043;-70